Time;durP1;ratioP1;P1;durP2;ratioP2;P2;SDS_P1;SDS_P2;PMS_P1;PMS_P2;Temp;Humidity;BMP_temperature;BMP_pressure;BME280_temperature;BME280_humidity;BME280_pressure;Samples;Min_cycle;Max_cycle;Signal;HPM_P1;HPM_P2
2022/06/05 00:01:40;;;;;;;17.73;13.67;;;14.50;99.90;;;;;;10197511;29;20248;-86
2022/06/05 00:06:49;;;;;;;20.37;13.87;;;14.00;99.90;;;;;;10185997;29;20580;-87
2022/06/05 00:12:15;;;;;;;16.53;13.03;;;14.40;99.90;;;;;;10197461;29;20290;-87
2022/06/05 00:17:20;;;;;;;17.70;13.47;;;12.80;99.90;;;;;;10215400;29;20729;-86
2022/06/05 00:22:22;;;;;;;17.67;12.87;;;14.20;99.90;;;;;;10216168;29;20573;-87
2022/06/05 00:27:33;;;;;;;18.57;12.67;;;12.70;99.90;;;;;;10177409;29;20596;-86
2022/06/05 00:32:49;;;;;;;16.77;12.63;;;12.80;99.90;;;;;;10219511;29;20227;-86
2022/06/05 00:38:03;;;;;;;15.97;11.90;;;14.10;99.90;;;;;;10213754;29;20206;-86
2022/06/05 00:43:12;;;;;;;19.67;13.20;;;12.70;99.90;;;;;;10209180;29;20265;-86
2022/06/05 00:48:15;;;;;;;19.50;11.60;;;13.70;99.90;;;;;;10229393;29;20223;-87
2022/06/05 00:53:17;;;;;;;15.40;11.50;;;13.50;99.90;;;;;;10199408;29;20261;-86
2022/06/05 00:58:21;;;;;;;15.17;10.83;;;13.50;99.90;;;;;;10207032;29;20212;-87
2022/06/05 01:03:24;;;;;;;14.20;10.43;;;13.40;99.90;;;;;;10216553;29;20246;-86
2022/06/05 01:08:27;;;;;;;11.83;10.00;;;13.20;99.90;;;;;;10215819;29;20635;-86
2022/06/05 01:13:43;;;;;;;11.47;8.63;;;12.00;99.90;;;;;;10214964;29;20207;-86
2022/06/05 01:19:18;;;;;;;12.07;8.73;;;11.90;99.90;;;;;;10208579;29;20207;-86
2022/06/05 01:24:49;;;;;;;17.60;9.70;;;12.80;99.90;;;;;;10171237;29;20648;-86
2022/06/05 01:30:01;;;;;;;14.30;9.07;;;12.80;99.90;;;;;;10204860;29;20581;-86
2022/06/05 01:35:17;;;;;;;11.47;9.07;;;12.40;99.90;;;;;;10177036;29;20209;-86
2022/06/05 01:40:25;;;;;;;15.17;9.10;;;11.90;99.90;;;;;;10188479;29;20207;-86
2022/06/05 01:45:50;;;;;;;12.33;9.13;;;11.90;99.90;;;;;;10212677;29;20246;-87
2022/06/05 01:50:57;;;;;;;15.20;9.57;;;11.50;99.90;;;;;;10213223;29;20212;-86
2022/06/05 01:56:05;;;;;;;14.37;10.23;;;12.50;99.90;;;;;;10212729;29;20205;-86
2022/06/05 02:01:15;;;;;;;16.20;9.90;;;12.40;99.90;;;;;;10211388;29;20193;-86
2022/06/05 02:06:25;;;;;;;14.97;10.43;;;12.00;99.90;;;;;;10212056;29;20227;-86
2022/06/05 02:11:31;;;;;;;17.07;10.90;;;11.40;99.90;;;;;;10210724;29;20253;-87
2022/06/05 02:16:36;;;;;;;14.90;9.47;;;12.20;99.90;;;;;;10211323;29;20203;-86
2022/06/05 02:21:40;;;;;;;15.23;10.77;;;11.70;99.90;;;;;;10213109;29;20205;-87
2022/06/05 02:26:43;;;;;;;21.40;11.80;;;11.80;99.90;;;;;;10206689;29;20615;-87
2022/06/05 02:32:00;;;;;;;17.60;11.07;;;11.80;99.90;;;;;;10233779;28;20275;-87
2022/06/05 02:37:09;;;;;;;16.67;10.73;;;11.90;99.90;;;;;;10235126;28;20250;-87
2022/06/05 02:42:21;;;;;;;16.90;10.83;;;12.10;99.90;;;;;;10216934;28;20670;-87
2022/06/05 02:47:38;;;;;;;15.27;10.47;;;12.30;99.90;;;;;;10231017;28;20228;-87
2022/06/05 02:52:41;;;;;;;22.87;13.80;;;12.40;99.90;;;;;;10209750;29;20198;-87
2022/06/05 02:57:44;;;;;;;20.30;11.83;;;11.40;99.90;;;;;;10209555;29;20261;-87
2022/06/05 03:08:13;;;;;;;19.07;11.40;;;11.50;99.90;;;;;;10264635;28;20583;-87
2022/06/05 03:13:17;;;;;;;20.00;12.50;;;11.50;99.90;;;;;;10247963;29;20209;-87
2022/06/05 03:18:19;;;;;;;19.50;11.40;;;11.30;99.90;;;;;;10251013;28;20241;-87
2022/06/05 03:23:22;;;;;;;14.10;10.93;;;12.40;99.90;;;;;;10212267;28;20639;-87
2022/06/05 03:28:25;;;;;;;17.83;11.03;;;11.30;99.90;;;;;;10225313;28;20278;-87
2022/06/05 03:33:28;;;;;;;17.77;9.93;;;11.90;99.90;;;;;;10215006;29;20202;-87
2022/06/05 03:38:30;;;;;;;13.43;9.57;;;11.30;99.90;;;;;;10193810;29;20218;-87
2022/06/05 03:43:33;;;;;;;16.60;9.07;;;11.30;99.90;;;;;;10247480;28;20283;-87
2022/06/05 03:48:36;;;;;;;11.43;8.20;;;11.30;99.90;;;;;;10216857;28;20225;-87
2022/06/05 03:53:39;;;;;;;9.90;7.73;;;11.50;99.90;;;;;;10252592;28;20258;-87
2022/06/05 03:58:44;;;;;;;13.20;9.17;;;11.80;99.90;;;;;;10240800;29;20213;-87
2022/06/05 04:03:48;;;;;;;14.37;9.80;;;12.20;99.90;;;;;;10246742;29;20198;-87
2022/06/05 04:08:52;;;;;;;14.13;9.90;;;11.80;99.90;;;;;;10249423;29;20720;-87
2022/06/05 04:13:54;;;;;;;11.53;8.73;;;11.80;99.90;;;;;;10257018;28;20583;-87
2022/06/05 04:18:59;;;;;;;14.40;10.50;;;12.30;99.90;;;;;;10230516;28;20272;-87
2022/06/05 04:24:02;;;;;;;16.97;10.37;;;12.30;99.90;;;;;;10256177;28;20286;-87
2022/06/05 04:29:05;;;;;;;19.43;11.83;;;12.50;99.90;;;;;;10199606;29;20234;-87
2022/06/05 04:34:10;;;;;;;17.73;10.67;;;12.70;99.90;;;;;;10216666;29;20201;-87
2022/06/05 04:39:13;;;;;;;16.23;11.77;;;12.60;99.90;;;;;;10238811;28;20198;-87
2022/06/05 04:44:17;;;;;;;19.80;12.00;;;12.50;99.90;;;;;;10214644;29;20204;-85
2022/06/05 04:49:20;;;;;;;15.97;10.57;;;12.50;99.90;;;;;;10224439;29;20253;-87
2022/06/05 04:54:22;;;;;;;16.07;10.70;;;12.70;99.90;;;;;;10237707;29;20573;-87
2022/06/05 04:59:25;;;;;;;17.97;12.00;;;12.50;99.90;;;;;;10217344;29;20250;-86
2022/06/05 05:04:27;;;;;;;18.60;11.17;;;12.60;99.90;;;;;;10259454;28;20248;-87
2022/06/05 05:09:30;;;;;;;15.67;10.40;;;12.90;99.90;;;;;;10261421;28;20630;-87
2022/06/05 05:14:33;;;;;;;22.43;12.87;;;13.00;99.90;;;;;;10258781;28;20227;-87
2022/06/05 05:19:35;;;;;;;16.57;11.97;;;12.80;99.90;;;;;;10261224;28;20237;-87
2022/06/05 05:24:37;;;;;;;15.40;10.17;;;12.90;99.90;;;;;;10268444;28;20206;-87
2022/06/05 05:29:41;;;;;;;14.53;9.83;;;12.80;99.90;;;;;;10288044;28;20316;-87
2022/06/05 05:34:43;;;;;;;17.93;10.47;;;12.90;99.90;;;;;;10258066;28;20198;-87
2022/06/05 05:45:08;;;;;;;12.40;9.47;;;13.30;99.90;;;;;;10253921;29;20250;-87
2022/06/05 05:50:13;;;;;;;11.77;8.67;;;13.30;99.90;;;;;;10236482;28;20281;-87
2022/06/05 05:55:18;;;;;;;15.10;10.33;;;13.60;99.90;;;;;;10253694;29;20570;-87
2022/06/05 06:00:20;;;;;;;17.03;10.40;;;13.50;99.90;;;;;;10252321;29;20257;-87
2022/06/05 06:05:23;;;;;;;14.40;8.93;;;14.00;99.90;;;;;;10236012;28;20207;-87
2022/06/05 06:10:26;;;;;;;13.17;9.67;;;14.20;99.90;;;;;;10247222;28;20221;-87
2022/06/05 06:15:28;;;;;;;11.20;9.20;;;14.30;99.90;;;;;;10266895;28;20191;-86
2022/06/05 06:20:31;;;;;;;12.33;8.67;;;14.50;99.90;;;;;;10253434;28;20217;-86
2022/06/05 06:25:35;;;;;;;11.10;8.67;;;14.60;99.90;;;;;;10243002;28;20275;-87
2022/06/05 06:30:40;;;;;;;13.10;10.13;;;14.70;99.90;;;;;;10251258;28;20304;-86
2022/06/05 06:35:43;;;;;;;11.70;10.00;;;14.60;99.90;;;;;;10248052;28;20227;-87
2022/06/05 06:40:45;;;;;;;12.37;9.03;;;15.10;99.90;;;;;;10232135;28;20630;-86
2022/06/05 06:45:53;;;;;;;13.07;8.87;;;15.50;99.90;;;;;;10211209;28;20344;-87
2022/06/05 06:50:58;;;;;;;14.70;8.57;;;15.40;99.90;;;;;;10233835;29;20222;-86
2022/06/05 06:56:08;;;;;;;10.33;8.37;;;15.50;99.90;;;;;;10251795;28;20249;-87
2022/06/05 07:01:12;;;;;;;12.67;10.97;;;15.60;99.90;;;;;;10233170;28;20624;-87
2022/06/05 07:06:15;;;;;;;10.17;8.33;;;16.00;99.90;;;;;;10225769;28;20559;-87
2022/06/05 07:11:19;;;;;;;11.57;8.37;;;16.10;99.90;;;;;;10233734;29;20226;-86
2022/06/05 07:16:23;;;;;;;11.73;8.97;;;16.20;99.90;;;;;;10233394;28;20731;-86
2022/06/05 07:21:27;;;;;;;11.93;8.43;;;16.40;99.90;;;;;;10233461;29;20635;-86
2022/06/05 07:26:31;;;;;;;12.03;8.37;;;16.40;99.90;;;;;;10253465;28;20218;-87
2022/06/05 07:31:34;;;;;;;11.57;9.53;;;16.90;99.90;;;;;;10240093;29;20252;-88
2022/06/05 07:36:37;;;;;;;14.03;10.90;;;17.00;99.90;;;;;;10246227;28;20198;-87
2022/06/05 07:41:40;;;;;;;9.60;8.43;;;17.30;99.90;;;;;;10241965;29;20253;-87
2022/06/05 07:46:42;;;;;;;12.07;8.13;;;17.70;99.90;;;;;;10232287;28;20265;-87
2022/06/05 07:57:12;;;;;;;8.97;6.10;;;17.90;99.90;;;;;;10257630;28;20558;-86
2022/06/05 08:02:22;;;;;;;10.47;6.23;;;18.00;99.90;;;;;;10238626;28;20198;-86
2022/06/05 08:07:26;;;;;;;5.33;4.83;;;18.10;99.90;;;;;;10224501;29;20230;-86
2022/06/05 08:12:32;;;;;;;7.93;6.80;;;18.50;99.90;;;;;;10222732;29;20206;-87
2022/06/05 08:17:35;;;;;;;9.53;8.57;;;18.60;99.90;;;;;;10242244;28;20552;-87
2022/06/05 08:22:38;;;;;;;10.40;9.30;;;18.80;99.90;;;;;;10223618;29;20611;-86
2022/06/05 08:27:40;;;;;;;6.40;4.57;;;18.90;99.90;;;;;;10211207;29;20592;-86
2022/06/05 08:32:43;;;;;;;12.80;10.83;;;19.10;99.90;;;;;;10240966;28;20233;-87
2022/06/05 08:43:42;;;;;;;10.27;6.40;;;19.50;99.90;;;;;;10234507;29;20691;-86
2022/06/05 08:48:52;;;;;;;8.80;5.80;;;19.60;99.90;;;;;;10228695;29;20245;-87
2022/06/05 08:54:32;;;;;;;9.80;8.80;;;19.70;99.90;;;;;;9860229;28;10000172;-87
2022/06/05 08:59:47;;;;;;;8.87;6.20;;;19.80;99.90;;;;;;10240684;28;20296;-87
2022/06/05 09:05:17;;;;;;;8.17;5.73;;;19.80;99.90;;;;;;10220010;28;20317;-86
2022/06/05 09:10:36;;;;;;;12.00;9.53;;;19.80;99.90;;;;;;10198747;29;20274;-86
2022/06/05 09:15:53;;;;;;;11.93;10.60;;;20.10;99.90;;;;;;10225730;29;20262;-86
2022/06/05 09:20:59;;;;;;;11.37;9.47;;;20.10;99.90;;;;;;10226691;29;20269;-86
2022/06/05 09:26:16;;;;;;;4.20;3.70;;;20.30;99.90;;;;;;10207996;29;20239;-87
2022/06/05 09:31:37;;;;;;;5.20;4.70;;;20.50;99.90;;;;;;10228952;29;20269;-86
2022/06/05 09:36:43;;;;;;;4.27;3.80;;;20.30;99.90;;;;;;10232833;29;20679;-86
2022/06/05 09:42:03;;;;;;;12.37;9.90;;;20.50;98.10;;;;;;10215009;29;20290;-86
2022/06/05 09:47:20;;;;;;;3.50;3.20;;;20.50;99.90;;;;;;10226213;28;20912;-86
2022/06/05 09:52:29;;;;;;;11.40;9.20;;;20.50;98.70;;;;;;10192509;29;20309;-86
2022/06/05 10:03:20;;;;;;;9.03;8.10;;;20.60;99.90;;;;;;10244350;28;20641;-87
2022/06/05 10:08:26;;;;;;;9.63;7.30;;;20.70;99.90;;;;;;10209414;29;20243;-86
2022/06/05 10:13:45;;;;;;;7.88;6.78;;;20.70;99.90;;;;;;10234222;28;20278;-86
2022/06/05 10:18:58;;;;;;;7.10;3.90;;;20.80;96.10;;;;;;10229002;29;20234;-86
2022/06/05 10:24:04;;;;;;;9.23;8.33;;;20.90;99.00;;;;;;10237938;29;20230;-86
2022/06/05 10:29:08;;;;;;;9.80;8.35;;;20.90;99.80;;;;;;10232677;29;20294;-87
2022/06/05 10:34:41;;;;;;;10.93;6.88;;;20.80;99.90;;;;;;10246162;28;20225;-88
2022/06/05 10:40:24;;;;;;;13.43;7.00;;;21.10;99.90;;;;;;10216335;29;20293;-86
2022/06/05 10:46:01;;;;;;;11.27;8.07;;;21.00;99.90;;;;;;10219972;29;20277;-87
2022/06/05 10:51:23;;;;;;;8.55;6.70;;;21.00;99.90;;;;;;10229205;28;20289;-88
2022/06/05 10:57:03;;;;;;;12.98;8.55;;;21.00;99.90;;;;;;10227382;28;20226;-86
2022/06/05 11:02:24;;;;;;;9.97;8.13;;;20.90;99.90;;;;;;10262511;28;20696;-86
2022/06/05 11:07:40;;;;;;;9.70;7.50;;;21.10;99.90;;;;;;10278524;28;20718;-86
2022/06/05 11:18:26;;;;;;;5.85;5.35;;;21.10;99.90;;;;;;10240186;28;20230;-87
2022/06/05 11:23:33;;;;;;;11.45;9.68;;;21.20;99.90;;;;;;10215538;29;20262;-86
2022/06/05 11:28:42;;;;;;;11.43;8.43;;;21.00;99.90;;;;;;10218385;28;20727;-86
2022/06/05 11:34:01;;;;;;;8.17;6.37;;;20.90;99.90;;;;;;10237171;28;20230;-86
2022/06/05 11:39:28;;;;;;;13.25;9.50;;;21.10;99.90;;;;;;10224362;29;20234;-87
2022/06/05 11:45:01;;;;;;;12.82;8.02;;;21.00;99.90;;;;;;10245084;28;20292;-86
2022/06/05 11:50:16;;;;;;;9.60;8.18;;;20.90;99.90;;;;;;10254423;29;20254;-87
2022/06/05 11:55:34;;;;;;;7.23;6.63;;;21.20;99.90;;;;;;10235710;28;20281;-86
2022/06/05 12:00:55;;;;;;;10.43;8.60;;;21.50;99.90;;;;;;10215525;29;20230;-87
2022/06/05 12:06:25;;;;;;;10.02;8.48;;;21.20;99.90;;;;;;10215523;28;20653;-87
2022/06/05 12:11:58;;;;;;;9.25;8.23;;;21.30;99.90;;;;;;10247625;28;20320;-87
2022/06/05 12:17:19;;;;;;;7.10;6.40;;;21.40;99.90;;;;;;10252461;28;20276;-87
2022/06/05 12:22:54;;;;;;;11.30;9.38;;;21.40;99.90;;;;;;10245265;29;20229;-87
2022/06/05 12:28:03;;;;;;;8.75;7.30;;;21.20;99.90;;;;;;10115007;29;20288;-87
2022/06/05 12:33:21;;;;;;;10.67;9.40;;;21.30;99.90;;;;;;10153526;29;20263;-87
2022/06/05 12:38:47;;;;;;;7.35;6.65;;;21.20;99.90;;;;;;10115047;29;20243;-86
2022/06/05 12:44:11;;;;;;;10.20;9.15;;;21.50;99.20;;;;;;10113991;29;20249;-87
2022/06/05 12:49:41;;;;;;;10.37;9.17;;;21.40;99.80;;;;;;10106128;29;20312;-87
2022/06/05 12:54:48;;;;;;;11.00;7.50;;;21.30;99.90;;;;;;10112635;29;20243;-87
2022/06/05 13:00:44;;;;;;;11.38;9.43;;;21.20;99.90;;;;;;10093566;29;20262;-87
2022/06/05 13:06:04;;;;;;;10.43;8.63;;;21.10;99.90;;;;;;10231874;28;20656;-87
2022/06/05 13:11:28;;;;;;;11.25;10.05;;;21.20;99.90;;;;;;10291835;28;20253;-87
2022/06/05 13:16:49;;;;;;;10.50;9.32;;;21.30;99.90;;;;;;10235330;29;20261;-87
2022/06/05 13:22:25;;;;;;;12.70;9.57;;;21.20;99.30;;;;;;10251813;29;20206;-86
2022/06/05 13:27:39;;;;;;;10.80;8.80;;;21.30;99.20;;;;;;10239764;28;20242;-86
2022/06/05 13:32:45;;;;;;;7.60;6.72;;;21.60;98.80;;;;;;10235063;28;20238;-87
2022/06/05 13:38:22;;;;;;;6.63;6.00;;;21.80;99.90;;;;;;10224605;28;20647;-87
2022/06/05 13:43:28;;;;;;;10.20;9.20;;;21.80;99.60;;;;;;10263827;28;20683;-87
2022/06/05 13:48:35;;;;;;;10.13;8.77;;;22.20;97.40;;;;;;10235302;29;20199;-87
2022/06/05 13:53:46;;;;;;;10.20;9.18;;;21.60;98.30;;;;;;10230276;28;20265;-86
2022/06/05 13:59:13;;;;;;;10.98;9.40;;;21.90;97.70;;;;;;10252533;29;20577;-86
2022/06/05 14:04:16;;;;;;;6.88;6.25;;;22.00;97.80;;;;;;10282757;28;20253;-88
2022/06/05 14:09:37;;;;;;;12.52;10.35;;;21.70;98.10;;;;;;10306852;28;20232;-87
2022/06/05 14:14:43;;;;;;;10.77;9.23;;;21.50;97.80;;;;;;10307833;28;20202;-87
2022/06/05 14:19:53;;;;;;;11.32;10.20;;;21.50;98.40;;;;;;10357541;28;20189;-88
2022/06/05 14:24:57;;;;;;;12.35;9.60;;;21.80;97.90;;;;;;10318383;28;20278;-87
2022/06/05 14:30:04;;;;;;;8.45;6.47;;;21.70;97.70;;;;;;10320594;28;20242;-88
2022/06/05 14:35:16;;;;;;;11.75;10.52;;;21.90;96.50;;;;;;10341387;28;20190;-88
2022/06/05 14:40:22;;;;;;;10.55;9.45;;;21.50;97.80;;;;;;10357063;28;20193;-87
2022/06/05 14:45:36;;;;;;;12.27;9.32;;;21.80;97.40;;;;;;10324520;28;20182;-87
2022/06/05 14:50:53;;;;;;;9.25;8.05;;;21.50;97.80;;;;;;10325731;28;20252;-87
2022/06/05 15:01:53;;;;;;;12.57;10.07;;;21.50;97.80;;;;;;10343910;28;20213;-87
2022/06/05 15:07:34;;;;;;;12.38;9.80;;;21.50;97.70;;;;;;10324308;28;20209;-87
2022/06/05 15:12:47;;;;;;;8.48;7.47;;;21.50;97.60;;;;;;10325184;28;20244;-88
2022/06/05 15:17:56;;;;;;;7.85;6.68;;;21.50;96.60;;;;;;10312495;28;20198;-87
2022/06/05 15:23:27;;;;;;;10.38;9.38;;;21.60;96.20;;;;;;10314836;28;20239;-87
2022/06/05 15:28:56;;;;;;;7.28;6.32;;;21.60;97.50;;;;;;10293158;28;20248;-87
2022/06/05 15:34:41;;;;;;;11.48;8.73;;;21.70;96.90;;;;;;10279603;28;20268;-87
2022/06/05 15:39:49;;;;;;;12.48;10.82;;;21.50;97.40;;;;;;10107099;29;20209;-87
2022/06/05 15:45:19;;;;;;;11.02;9.73;;;21.50;97.40;;;;;;10100763;29;20253;-87
2022/06/05 15:50:43;;;;;;;11.32;10.18;;;21.50;96.10;;;;;;10066003;29;20229;-87
2022/06/05 15:55:45;;;;;;;12.50;10.82;;;21.60;97.40;;;;;;10067000;29;20802;-87
2022/06/05 16:01:13;;;;;;;10.93;9.75;;;21.50;97.50;;;;;;10079316;29;20226;-87
2022/06/05 16:06:22;;;;;;;11.98;10.45;;;21.50;97.40;;;;;;10090987;29;20212;-87
2022/06/05 16:11:32;;;;;;;6.82;3.78;;;21.60;97.40;;;;;;10308706;28;20582;-87
2022/06/05 16:16:46;;;;;;;10.95;9.85;;;21.70;92.00;;;;;;10290092;28;20201;-87
2022/06/05 16:22:16;;;;;;;11.48;10.25;;;21.70;94.60;;;;;;10280967;28;20241;-87
2022/06/05 16:27:45;;;;;;;11.00;7.50;;;21.80;96.50;;;;;;10276831;28;20267;-87
2022/06/05 16:32:47;;;;;;;10.25;9.15;;;21.80;92.00;;;;;;10253516;28;20308;-82
2022/06/05 16:37:57;;;;;;;9.63;8.73;;;21.90;95.60;;;;;;10295143;28;20745;-81
2022/06/05 16:43:00;;;;;;;9.75;8.45;;;22.10;94.00;;;;;;10278185;28;20209;-81
2022/06/05 16:48:25;;;;;;;8.63;7.72;;;22.10;92.90;;;;;;10293341;28;20225;-82
2022/06/05 16:53:38;;;;;;;7.85;7.15;;;22.10;92.60;;;;;;10301778;28;20597;-82
2022/06/05 16:59:03;;;;;;;8.27;7.43;;;22.30;91.90;;;;;;10260313;28;20837;-82
2022/06/05 17:04:08;;;;;;;9.52;7.30;;;22.40;85.30;;;;;;10270282;28;20229;-82
2022/06/05 17:09:17;;;;;;;4.88;3.45;;;22.50;87.20;;;;;;10250213;28;20261;-81
2022/06/05 17:14:53;;;;;;;10.73;9.60;;;22.60;80.70;;;;;;10268799;28;20233;-81
2022/06/05 17:20:03;;;;;;;13.45;9.60;;;22.40;91.10;;;;;;10240030;28;20249;-81
2022/06/05 17:25:27;;;;;;;9.43;8.40;;;22.40;91.10;;;;;;10280107;28;20225;-81
2022/06/05 17:30:55;;;;;;;10.07;8.77;;;22.30;91.30;;;;;;10270290;28;20257;-81
2022/06/05 17:36:36;;;;;;;4.60;3.10;;;22.30;91.40;;;;;;10265182;28;20264;-81
2022/06/05 17:41:38;;;;;;;5.60;4.45;;;22.30;87.30;;;;;;10268950;28;20206;-81
2022/06/05 17:46:50;;;;;;;10.50;6.63;;;22.10;84.90;;;;;;10291758;28;20206;-82
2022/06/05 17:51:57;;;;;;;10.50;9.32;;;22.00;90.00;;;;;;10233971;28;20297;-81
2022/06/05 17:57:17;;;;;;;9.98;7.70;;;22.00;92.40;;;;;;10271490;28;20233;-82
2022/06/05 18:02:27;;;;;;;10.20;5.85;;;21.90;91.00;;;;;;10292539;28;20233;-81
2022/06/05 18:07:37;;;;;;;9.02;8.07;;;21.60;86.50;;;;;;10279170;28;20237;-81
2022/06/05 18:12:40;;;;;;;7.05;6.35;;;21.40;92.60;;;;;;10263877;28;20250;-81
2022/06/05 18:17:43;;;;;;;2.95;2.33;;;21.30;90.00;;;;;;10282681;28;20233;-81
2022/06/05 18:22:50;;;;;;;4.68;4.28;;;21.00;82.80;;;;;;10270798;28;20683;-81
2022/06/05 18:27:59;;;;;;;10.85;6.07;;;20.60;90.80;;;;;;10269151;28;20268;-81
2022/06/05 18:33:23;;;;;;;4.50;4.10;;;20.70;92.60;;;;;;10263907;28;20264;-81
2022/06/05 18:38:29;;;;;;;5.32;3.22;;;20.50;91.40;;;;;;10267373;28;20250;-81
2022/06/05 18:43:37;;;;;;;3.88;2.60;;;20.10;86.70;;;;;;10258431;28;20788;-81
2022/06/05 18:48:42;;;;;;;4.15;2.63;;;19.30;90.30;;;;;;10243421;28;20300;-82
2022/06/05 18:53:51;;;;;;;4.35;2.70;;;18.60;95.10;;;;;;10274860;28;20335;-81
2022/06/05 18:58:54;;;;;;;14.07;4.13;;;18.10;97.50;;;;;;10266596;28;20245;-85
2022/06/05 19:04:13;;;;;;;5.47;3.30;;;18.50;98.90;;;;;;10266528;28;20241;-85
2022/06/05 19:09:19;;;;;;;7.68;2.88;;;18.90;99.60;;;;;;10279059;28;20292;-85
2022/06/05 19:14:26;;;;;;;5.63;2.67;;;18.70;99.10;;;;;;9940396;28;9999891;-85
2022/06/05 19:19:39;;;;;;;5.40;3.00;;;18.60;98.30;;;;;;10286058;28;20288;-85
2022/06/05 19:24:48;;;;;;;2.90;2.65;;;18.60;99.90;;;;;;10285856;28;20232;-86
2022/06/05 19:29:53;;;;;;;5.13;2.50;;;18.90;99.90;;;;;;10268448;28;20293;-86
2022/06/05 19:35:01;;;;;;;6.40;2.92;;;19.10;99.90;;;;;;10236966;28;20230;-86
2022/06/05 19:40:10;;;;;;;4.40;3.25;;;19.20;99.90;;;;;;10254184;28;20265;-85
2022/06/05 19:45:44;;;;;;;3.17;2.80;;;19.20;99.90;;;;;;10273232;28;20789;-85
2022/06/05 19:50:56;;;;;;;8.02;3.75;;;19.20;99.90;;;;;;10256196;28;20727;-85
2022/06/05 19:55:59;;;;;;;3.00;2.37;;;19.20;99.90;;;;;;10270350;28;20696;-86
2022/06/05 20:01:24;;;;;;;4.57;2.63;;;19.20;99.90;;;;;;10248248;28;20229;-85
2022/06/05 20:06:38;;;;;;;2.90;2.50;;;19.20;99.90;;;;;;10277781;28;20233;-86
2022/06/05 20:12:10;;;;;;;3.05;2.55;;;19.20;99.90;;;;;;10274142;28;20252;-85
2022/06/05 20:17:23;;;;;;;2.60;2.08;;;19.20;99.90;;;;;;10242215;29;20246;-86
2022/06/05 20:22:38;;;;;;;3.10;2.80;;;19.10;99.90;;;;;;10299866;28;20241;-86
2022/06/05 20:28:01;;;;;;;8.10;2.70;;;19.10;99.90;;;;;;10260768;28;20249;-86
2022/06/05 20:33:28;;;;;;;2.60;2.38;;;19.10;99.90;;;;;;10230284;29;20336;-86
2022/06/05 20:38:52;;;;;;;5.72;2.78;;;19.10;99.90;;;;;;10254753;28;20300;-86
2022/06/05 20:44:06;;;;;;;2.60;2.30;;;19.10;99.90;;;;;;10268168;28;20289;-85
2022/06/05 20:49:15;;;;;;;4.53;2.43;;;19.10;99.90;;;;;;10249625;28;20702;-86
2022/06/05 20:54:19;;;;;;;4.28;2.58;;;19.10;99.90;;;;;;10257933;28;20287;-85
2022/06/05 20:59:22;;;;;;;3.20;2.70;;;19.10;99.90;;;;;;10291729;28;20420;-86
2022/06/05 21:10:09;;;;;;;5.10;2.50;;;19.10;99.90;;;;;;10258852;28;20237;-87
2022/06/05 21:20:31;;;;;;;2.20;2.00;;;19.10;99.90;;;;;;10264116;28;20287;-86
2022/06/05 21:25:47;;;;;;;2.85;2.45;;;19.00;99.90;;;;;;10277809;28;20234;-86
2022/06/05 21:30:53;;;;;;;2.40;2.20;;;19.10;99.90;;;;;;10254532;28;20327;-86
2022/06/05 21:36:06;;;;;;;3.00;2.33;;;19.00;99.90;;;;;;10290236;28;20228;-86
2022/06/05 21:41:35;;;;;;;4.20;2.20;;;19.00;99.90;;;;;;10289024;28;20316;-86
2022/06/05 21:46:40;;;;;;;4.25;2.47;;;19.00;99.90;;;;;;10263676;28;20233;-86
2022/06/05 21:51:45;;;;;;;2.87;2.57;;;19.00;99.90;;;;;;10270534;28;20316;-86
2022/06/05 21:56:52;;;;;;;3.47;2.40;;;19.00;99.90;;;;;;10287643;28;20237;-86
2022/06/05 22:01:54;;;;;;;2.88;2.55;;;19.00;99.90;;;;;;10271597;28;20233;-86
2022/06/05 22:06:57;;;;;;;3.28;2.33;;;18.90;99.90;;;;;;10294573;28;20624;-86
2022/06/05 22:12:00;;;;;;;3.75;2.20;;;18.90;99.90;;;;;;10287360;28;20339;-86
2022/06/05 22:17:03;;;;;;;2.45;2.25;;;18.90;99.90;;;;;;10255393;28;20663;-86
2022/06/05 22:22:16;;;;;;;4.20;3.00;;;18.90;99.90;;;;;;10258302;28;20254;-86
2022/06/05 22:27:21;;;;;;;1.88;1.77;;;18.90;99.90;;;;;;10288281;28;20241;-87
2022/06/05 22:32:23;;;;;;;2.72;2.40;;;18.90;99.90;;;;;;10288274;28;20269;-86
2022/06/05 22:37:27;;;;;;;2.88;2.50;;;18.90;99.90;;;;;;10270254;28;20237;-86
2022/06/05 22:42:29;;;;;;;2.50;2.30;;;18.90;99.90;;;;;;10271250;28;20688;-86
2022/06/05 22:47:32;;;;;;;2.58;2.38;;;18.90;99.90;;;;;;10280032;28;20690;-86
2022/06/05 22:52:34;;;;;;;2.60;2.30;;;18.90;99.90;;;;;;10247967;29;20257;-86
2022/06/05 22:57:38;;;;;;;2.27;2.07;;;19.00;99.90;;;;;;10257902;28;20644;-86
2022/06/05 23:02:41;;;;;;;3.20;2.33;;;18.90;99.90;;;;;;10300688;28;20236;-86
2022/06/05 23:07:45;;;;;;;2.87;2.60;;;19.00;99.90;;;;;;10280022;28;20284;-86
2022/06/05 23:12:47;;;;;;;2.20;2.10;;;19.00;99.90;;;;;;10279765;28;20328;-87
2022/06/05 23:17:50;;;;;;;2.08;1.95;;;19.00;99.90;;;;;;10279027;28;20980;-86
2022/06/05 23:22:53;;;;;;;2.03;1.83;;;18.90;99.90;;;;;;10283205;28;20240;-86
2022/06/05 23:27:55;;;;;;;3.13;1.75;;;19.00;99.90;;;;;;10300526;28;20233;-86
2022/06/05 23:32:58;;;;;;;2.60;2.40;;;18.90;99.90;;;;;;10253324;28;20297;-86
2022/06/05 23:38:00;;;;;;;2.53;2.33;;;18.90;99.90;;;;;;10275240;28;20275;-87
2022/06/05 23:43:03;;;;;;;2.97;2.67;;;18.90;99.90;;;;;;10279239;28;20234;-86
2022/06/05 23:48:07;;;;;;;2.53;2.33;;;19.00;99.90;;;;;;10260039;28;20198;-87
2022/06/05 23:53:10;;;;;;;2.80;2.57;;;18.90;99.90;;;;;;10227011;29;20285;-87
2022/06/05 23:58:12;;;;;;;2.70;2.13;;;19.00;99.90;;;;;;10253638;28;20241;-86
